createdAt,value
2022-11-15T00:04:47.303Z,87.90
2022-11-15T00:09:49.488Z,87.60
2022-11-15T00:14:55.647Z,87.30
2022-11-15T00:19:59.405Z,87.20
2022-11-15T00:25:01.627Z,87.10
2022-11-15T00:30:04.617Z,87.20
2022-11-15T00:35:09.123Z,87.30
2022-11-15T00:40:15.173Z,87.50
2022-11-15T00:45:17.623Z,87.50
2022-11-15T00:50:21.363Z,87.40
2022-11-15T00:55:23.603Z,87.40
2022-11-15T01:00:25.925Z,87.50
2022-11-15T01:05:32.536Z,87.50
2022-11-15T01:10:34.813Z,87.60
2022-11-15T01:15:41.200Z,87.80
2022-11-15T01:20:44.824Z,88.00
2022-11-15T01:25:47.029Z,88.10
2022-11-15T01:30:49.317Z,88.20
2022-11-15T01:35:52.988Z,88.30
2022-11-15T01:40:55.145Z,88.30
2022-11-15T01:46:00.701Z,88.20
2022-11-15T01:51:07.994Z,88.40
2022-11-15T01:56:11.915Z,88.70
2022-11-15T02:01:15.007Z,89.50
2022-11-15T02:06:19.342Z,88.40
2022-11-15T02:11:21.585Z,88.70
2022-11-15T02:16:35.413Z,88.80
2022-11-15T02:21:46.339Z,89.30
2022-11-15T02:27:18.602Z,89.40
2022-11-15T02:32:29.925Z,89.80
2022-11-15T02:37:40.685Z,89.60
2022-11-15T02:42:48.114Z,89.80
2022-11-15T02:47:55.971Z,89.80
2022-11-15T02:52:58.297Z,90.00
2022-11-15T02:58:19.029Z,90.20
2022-11-15T03:03:55.987Z,90.90
2022-11-15T03:09:03.842Z,91.30
2022-11-15T03:14:19.162Z,90.90
2022-11-15T03:19:31.248Z,90.50
2022-11-15T03:24:36.577Z,90.50
2022-11-15T03:29:42.562Z,90.40
2022-11-15T03:34:51.169Z,90.40
2022-11-15T03:39:53.488Z,90.40
2022-11-15T03:45:03.804Z,90.40
2022-11-15T03:50:11.694Z,90.40
2022-11-15T03:55:20.133Z,90.30
2022-11-15T04:00:22.570Z,90.20
2022-11-15T04:05:26.269Z,90.20
2022-11-15T04:10:28.574Z,90.30
2022-11-15T04:15:30.893Z,90.10
2022-11-15T04:20:37.545Z,90.20
2022-11-15T04:25:40.065Z,90.30
2022-11-15T04:30:42.208Z,90.10
2022-11-15T04:35:45.897Z,90.30
2022-11-15T04:40:48.150Z,90.20
2022-11-15T04:45:53.349Z,90.60
2022-11-15T04:50:57.134Z,90.20
2022-11-15T04:55:59.330Z,90.60
2022-11-15T05:01:08.302Z,90.60
2022-11-15T05:06:12.014Z,90.50
2022-11-15T05:11:14.297Z,90.80
2022-11-15T05:16:16.741Z,90.80
2022-11-15T05:21:21.058Z,90.60
2022-11-15T05:26:23.325Z,90.60
2022-11-15T05:31:27.194Z,90.60
2022-11-15T05:36:35.642Z,90.50
2022-11-15T05:41:43.265Z,90.70
2022-11-15T05:46:46.479Z,90.70
2022-11-15T05:51:50.858Z,90.60
2022-11-15T05:56:55.126Z,90.70
2022-11-15T06:01:57.454Z,90.60
2022-11-15T06:07:01.484Z,90.60
2022-11-15T06:12:04.059Z,90.70
2022-11-15T06:17:11.168Z,90.60
2022-11-15T06:22:15.407Z,90.60
2022-11-15T06:27:17.799Z,90.50
2022-11-15T06:32:20.220Z,90.50
2022-11-15T06:37:23.955Z,90.50
2022-11-15T06:42:26.266Z,90.50
2022-11-15T06:47:28.630Z,90.60
2022-11-15T06:52:33.831Z,90.50
2022-11-15T06:57:36.547Z,90.50
2022-11-15T07:02:38.839Z,90.50
2022-11-15T07:07:42.585Z,90.50
2022-11-15T07:12:48.379Z,90.60
2022-11-15T07:17:50.772Z,90.60
2022-11-15T07:23:01.363Z,90.50
2022-11-15T07:28:04.669Z,90.60
2022-11-15T07:33:07.549Z,90.50
2022-11-15T07:38:11.250Z,90.50
2022-11-15T07:43:13.567Z,90.40
2022-11-15T07:48:16.038Z,90.30
2022-11-15T07:53:19.788Z,90.30
2022-11-15T07:58:22.244Z,90.30
2022-11-15T08:03:26.788Z,90.30
2022-11-15T08:08:30.632Z,90.20
2022-11-15T08:13:33.270Z,90.20
2022-11-15T08:18:36.254Z,90.20
2022-11-15T08:23:40.022Z,90.10
2022-11-15T08:28:43.755Z,90.10
2022-11-15T08:33:46.454Z,90.10
2022-11-15T08:38:50.222Z,90.10
2022-11-15T08:43:52.622Z,90.00
2022-11-15T08:48:55.167Z,90.00
2022-11-15T08:53:59.021Z,90.10
2022-11-15T08:59:01.501Z,90.00
2022-11-15T09:04:04.436Z,90.00
2022-11-15T09:09:08.573Z,90.00
2022-11-15T09:14:14.596Z,90.00
2022-11-15T09:19:16.841Z,90.00
2022-11-15T09:24:20.747Z,90.00
2022-11-15T09:29:23.007Z,90.00
2022-11-15T09:34:25.342Z,90.00
2022-11-15T09:39:31.471Z,90.00
2022-11-15T09:44:47.378Z,90.00
2022-11-15T09:49:57.870Z,90.00
2022-11-15T09:55:02.156Z,89.80
2022-11-15T10:05:40.119Z,89.80
2022-11-15T10:10:47.166Z,89.60
2022-11-15T10:15:50.860Z,89.50
2022-11-15T10:20:59.268Z,89.60
2022-11-15T10:26:08.535Z,89.50
2022-11-15T10:31:27.844Z,89.60
2022-11-15T10:36:30.213Z,89.60
2022-11-15T10:41:41.884Z,89.40
2022-11-15T10:46:47.841Z,89.40
2022-11-15T10:51:58.375Z,89.20
2022-11-15T10:57:08.131Z,89.10
2022-11-15T11:02:28.630Z,89.30
2022-11-15T11:07:35.920Z,89.60
2022-11-15T11:12:39.364Z,89.20
2022-11-15T11:17:58.562Z,89.50
2022-11-15T11:23:20.508Z,90.00
2022-11-15T11:28:37.714Z,90.10
2022-11-15T11:33:43.183Z,90.80
2022-11-15T11:38:56.102Z,90.50
2022-11-15T11:44:09.813Z,90.60
2022-11-15T11:49:16.710Z,90.70
2022-11-15T11:54:24.180Z,90.70
2022-11-15T11:59:37.415Z,90.70
2022-11-15T12:04:43.978Z,90.90
2022-11-15T12:09:53.112Z,90.80
2022-11-15T12:15:02.287Z,91.10
2022-11-15T12:20:14.446Z,91.00
2022-11-15T12:25:21.469Z,90.80
2022-11-15T12:30:39.580Z,90.70
2022-11-15T12:35:43.857Z,90.70
2022-11-15T12:41:14.329Z,90.50
2022-11-15T12:46:44.003Z,90.30
2022-11-15T12:52:05.948Z,90.30
2022-11-15T12:57:29.394Z,90.30
2022-11-15T13:02:36.280Z,89.50
2022-11-15T13:07:59.892Z,89.20
2022-11-15T13:13:03.818Z,89.40
2022-11-15T13:18:39.232Z,89.70
2022-11-15T13:23:42.011Z,88.80
2022-11-15T13:28:45.973Z,87.80
2022-11-15T13:33:50.821Z,86.90
2022-11-15T13:39:00.334Z,86.50
2022-11-15T13:44:04.651Z,86.80
2022-11-15T13:49:11.067Z,86.30
2022-11-15T13:54:26.398Z,85.90
2022-11-15T13:59:32.061Z,85.20
2022-11-15T14:04:36.298Z,85.40
2022-11-15T14:09:40.313Z,84.80
2022-11-15T14:14:47.243Z,84.70
2022-11-15T14:19:51.138Z,84.20
2022-11-15T14:25:18.808Z,84.30
2022-11-15T14:30:21.137Z,83.80
2022-11-15T14:35:25.021Z,84.40
2022-11-15T14:40:27.319Z,84.40
2022-11-15T14:45:31.536Z,84.40
2022-11-15T14:50:36.648Z,84.30
2022-11-15T14:55:39.019Z,84.30
2022-11-15T15:00:43.046Z,83.90
2022-11-15T15:05:48.002Z,84.20
2022-11-15T15:10:50.333Z,84.20
2022-11-15T15:15:53.459Z,84.30
2022-11-15T15:20:59.382Z,84.50
2022-11-15T15:26:01.683Z,84.40
2022-11-15T15:31:06.216Z,84.50
2022-11-15T15:36:12.367Z,84.80
2022-11-15T15:41:16.721Z,84.90
2022-11-15T15:46:20.694Z,86.00
2022-11-15T15:51:24.521Z,85.20
2022-11-15T15:56:26.827Z,85.20
2022-11-15T16:01:29.261Z,85.10
2022-11-15T16:06:38.594Z,85.30
2022-11-15T16:11:41.599Z,85.10
2022-11-15T16:16:43.895Z,85.30
2022-11-15T16:21:47.773Z,85.40
2022-11-15T16:26:52.137Z,85.60
2022-11-15T16:31:54.503Z,85.60
2022-11-15T16:36:58.259Z,85.60
2022-11-15T16:42:01.260Z,85.60
2022-11-15T16:47:17.542Z,85.60
2022-11-15T16:52:21.743Z,85.70
2022-11-15T16:57:24.080Z,85.80
2022-11-15T17:02:26.437Z,85.70
2022-11-15T17:07:31.648Z,85.80
2022-11-15T17:12:38.493Z,85.70
2022-11-15T17:17:41.537Z,85.70
2022-11-15T17:22:45.371Z,85.70
2022-11-15T17:27:47.786Z,85.60
2022-11-15T17:32:51.997Z,85.50
2022-11-15T17:37:55.751Z,86.20
2022-11-15T17:42:58.221Z,85.50
2022-11-15T17:48:00.537Z,85.50
2022-11-15T17:53:04.118Z,85.30
2022-11-15T17:58:09.329Z,85.40
2022-11-15T18:03:11.549Z,85.60
2022-11-15T18:08:15.606Z,85.60
2022-11-15T18:13:18.018Z,85.40
2022-11-15T18:18:21.488Z,85.50
2022-11-15T18:23:27.557Z,85.50
2022-11-15T18:28:31.844Z,85.50
2022-11-15T18:33:35.620Z,85.60
2022-11-15T18:38:39.906Z,85.60
2022-11-15T18:43:42.302Z,85.40
2022-11-15T18:48:46.359Z,85.50
2022-11-15T18:53:53.674Z,85.70
2022-11-15T18:58:56.665Z,85.70
2022-11-15T19:03:59.642Z,85.60
2022-11-15T19:09:04.587Z,85.80
2022-11-15T19:14:08.701Z,85.80
2022-11-15T19:19:13.746Z,85.80
2022-11-15T19:24:17.714Z,85.80
2022-11-15T19:29:19.923Z,85.90
2022-11-15T19:34:22.360Z,86.20
2022-11-15T19:39:26.816Z,86.40
2022-11-15T19:44:29.771Z,86.60
2022-11-15T19:49:32.579Z,86.80
2022-11-15T19:54:37.772Z,87.00
2022-11-15T19:59:52.459Z,87.20
2022-11-15T20:04:54.666Z,87.20
2022-11-15T20:09:58.398Z,87.30
2022-11-15T20:15:00.636Z,87.30
2022-11-15T20:20:02.974Z,87.20
2022-11-15T20:25:08.911Z,87.30
2022-11-15T20:30:12.118Z,87.30
2022-11-15T20:35:14.574Z,87.10
2022-11-15T20:40:19.014Z,87.10
2022-11-15T20:45:21.649Z,86.90
2022-11-15T20:50:41.756Z,86.70
2022-11-15T20:55:49.261Z,86.50
2022-11-15T21:00:55.685Z,86.30
2022-11-15T21:06:00.737Z,86.10
2022-11-15T21:11:04.709Z,86.00
2022-11-15T21:16:08.088Z,85.80
2022-11-15T21:21:10.492Z,86.00
2022-11-15T21:26:14.358Z,85.80
2022-11-15T21:31:18.994Z,85.80
2022-11-15T21:36:21.962Z,85.60
2022-11-15T21:41:25.815Z,85.50
2022-11-15T21:46:29.288Z,85.50
2022-11-15T21:51:32.523Z,85.40
2022-11-15T21:56:37.784Z,85.40
2022-11-15T22:01:40.299Z,85.50
2022-11-15T22:06:42.660Z,85.30
2022-11-15T22:11:46.384Z,85.40
2022-11-15T22:16:48.644Z,85.40
2022-11-15T22:21:53.581Z,85.30
2022-11-15T22:26:57.325Z,85.30
2022-11-15T22:31:59.683Z,85.40
2022-11-15T22:42:25.778Z,85.40
2022-11-15T22:47:28.058Z,85.50
2022-11-15T22:52:30.301Z,85.30
2022-11-15T22:57:33.990Z,85.40
2022-11-15T23:02:36.269Z,85.30
2022-11-15T23:07:40.548Z,85.20
2022-11-15T23:12:44.326Z,85.30
2022-11-15T23:17:46.648Z,85.30
2022-11-15T23:22:48.928Z,85.30
2022-11-15T23:27:52.813Z,85.30
2022-11-15T23:32:58.226Z,85.30
2022-11-15T23:38:00.570Z,85.20
2022-11-15T23:43:04.338Z,85.10
2022-11-15T23:48:06.904Z,85.20
2022-11-15T23:53:09.312Z,85.10
2022-11-15T23:58:15.454Z,85.40
